sensor_id;sensor_type;location;lat;lon;timestamp;pressure;altitude;pressure_sealevel;temperature
73937;BMP180;59249;59.736;30.568;2023-03-23T00:01:21;99438.00;;;5.90
73937;BMP180;59249;59.736;30.568;2023-03-23T00:03:51;99441.00;;;5.90
73937;BMP180;59249;59.736;30.568;2023-03-23T00:06:23;99433.00;;;6.00
73937;BMP180;59249;59.736;30.568;2023-03-23T00:08:54;99433.00;;;5.90
73937;BMP180;59249;59.736;30.568;2023-03-23T00:11:26;99425.00;;;5.90
73937;BMP180;59249;59.736;30.568;2023-03-23T00:13:56;99416.00;;;5.90
73937;BMP180;59249;59.736;30.568;2023-03-23T00:16:30;99422.00;;;5.90
73937;BMP180;59249;59.736;30.568;2023-03-23T00:19:04;99421.00;;;5.90
73937;BMP180;59249;59.736;30.568;2023-03-23T00:21:34;99414.00;;;5.90
73937;BMP180;59249;59.736;30.568;2023-03-23T00:24:08;99411.00;;;5.90
73937;BMP180;59249;59.736;30.568;2023-03-23T00:26:38;99420.00;;;5.90
73937;BMP180;59249;59.736;30.568;2023-03-23T00:29:13;99413.00;;;5.90
73937;BMP180;59249;59.736;30.568;2023-03-23T00:31:42;99402.00;;;5.90
73937;BMP180;59249;59.736;30.568;2023-03-23T00:34:13;99401.00;;;5.90
73937;BMP180;59249;59.736;30.568;2023-03-23T00:36:45;99406.00;;;5.80
73937;BMP180;59249;59.736;30.568;2023-03-23T00:39:15;99394.00;;;5.90
73937;BMP180;59249;59.736;30.568;2023-03-23T00:41:47;99397.00;;;5.90
73937;BMP180;59249;59.736;30.568;2023-03-23T00:44:15;99398.00;;;5.90
73937;BMP180;59249;59.736;30.568;2023-03-23T00:46:44;99390.00;;;5.90
73937;BMP180;59249;59.736;30.568;2023-03-23T00:49:13;99385.00;;;5.90
73937;BMP180;59249;59.736;30.568;2023-03-23T00:51:43;99376.00;;;5.90
73937;BMP180;59249;59.736;30.568;2023-03-23T00:54:11;99376.00;;;5.90
73937;BMP180;59249;59.736;30.568;2023-03-23T00:56:40;99377.00;;;6.00
73937;BMP180;59249;59.736;30.568;2023-03-23T00:59:08;99358.00;;;6.00
73937;BMP180;59249;59.736;30.568;2023-03-23T01:01:36;99366.00;;;5.90
73937;BMP180;59249;59.736;30.568;2023-03-23T01:04:04;99368.00;;;5.90
73937;BMP180;59249;59.736;30.568;2023-03-23T01:06:33;99368.00;;;5.90
73937;BMP180;59249;59.736;30.568;2023-03-23T01:09:05;99366.00;;;5.90
73937;BMP180;59249;59.736;30.568;2023-03-23T01:11:34;99356.00;;;5.90
73937;BMP180;59249;59.736;30.568;2023-03-23T01:14:06;99355.00;;;5.90
73937;BMP180;59249;59.736;30.568;2023-03-23T01:16:34;99344.00;;;5.80
73937;BMP180;59249;59.736;30.568;2023-03-23T01:19:02;99341.00;;;5.80
73937;BMP180;59249;59.736;30.568;2023-03-23T01:21:30;99336.00;;;5.70
73937;BMP180;59249;59.736;30.568;2023-03-23T01:23:57;99349.00;;;5.80
73937;BMP180;59249;59.736;30.568;2023-03-23T01:26:26;99325.00;;;5.70
73937;BMP180;59249;59.736;30.568;2023-03-23T01:28:55;99289.00;;;5.60
73937;BMP180;59249;59.736;30.568;2023-03-23T01:31:25;99299.00;;;5.70
73937;BMP180;59249;59.736;30.568;2023-03-23T01:33:53;99314.00;;;5.70
73937;BMP180;59249;59.736;30.568;2023-03-23T01:36:24;99300.00;;;5.70
73937;BMP180;59249;59.736;30.568;2023-03-23T01:38:59;99287.00;;;5.70
73937;BMP180;59249;59.736;30.568;2023-03-23T01:41:30;99290.00;;;5.70
73937;BMP180;59249;59.736;30.568;2023-03-23T01:44:04;99290.00;;;5.70
73937;BMP180;59249;59.736;30.568;2023-03-23T01:46:45;99295.00;;;5.70
73937;BMP180;59249;59.736;30.568;2023-03-23T01:49:16;99285.00;;;5.80
73937;BMP180;59249;59.736;30.568;2023-03-23T01:51:49;99282.00;;;5.70
73937;BMP180;59249;59.736;30.568;2023-03-23T01:54:23;99281.00;;;5.70
73937;BMP180;59249;59.736;30.568;2023-03-23T01:56:56;99279.00;;;5.80
73937;BMP180;59249;59.736;30.568;2023-03-23T01:59:27;99284.00;;;5.70
73937;BMP180;59249;59.736;30.568;2023-03-23T02:02:15;99287.00;;;5.70
73937;BMP180;59249;59.736;30.568;2023-03-23T02:04:45;99255.00;;;5.70
73937;BMP180;59249;59.736;30.568;2023-03-23T02:07:15;99269.00;;;5.70
73937;BMP180;59249;59.736;30.568;2023-03-23T02:09:44;99251.00;;;5.70
73937;BMP180;59249;59.736;30.568;2023-03-23T02:12:12;99246.00;;;5.80
73937;BMP180;59249;59.736;30.568;2023-03-23T02:14:41;99244.00;;;5.80
73937;BMP180;59249;59.736;30.568;2023-03-23T02:17:34;99248.00;;;5.80
73937;BMP180;59249;59.736;30.568;2023-03-23T02:20:19;99245.00;;;5.80
73937;BMP180;59249;59.736;30.568;2023-03-23T02:23:26;99238.00;;;5.80
73937;BMP180;59249;59.736;30.568;2023-03-23T02:29:45;99224.00;;;5.80
73937;BMP180;59249;59.736;30.568;2023-03-23T02:32:57;99219.00;;;5.80
73937;BMP180;59249;59.736;30.568;2023-03-23T02:35:53;99223.00;;;5.80
73937;BMP180;59249;59.736;30.568;2023-03-23T02:38:30;99210.00;;;5.70
73937;BMP180;59249;59.736;30.568;2023-03-23T02:41:02;99211.00;;;5.80
73937;BMP180;59249;59.736;30.568;2023-03-23T02:43:35;99214.00;;;5.80
73937;BMP180;59249;59.736;30.568;2023-03-23T02:46:10;99205.00;;;5.80
73937;BMP180;59249;59.736;30.568;2023-03-23T02:48:42;99202.00;;;5.90
73937;BMP180;59249;59.736;30.568;2023-03-23T02:51:13;99200.00;;;5.80
73937;BMP180;59249;59.736;30.568;2023-03-23T02:53:43;99187.00;;;5.80
73937;BMP180;59249;59.736;30.568;2023-03-23T02:56:13;99179.00;;;5.90
73937;BMP180;59249;59.736;30.568;2023-03-23T02:58:41;99178.00;;;5.90
73937;BMP180;59249;59.736;30.568;2023-03-23T03:04:26;99173.00;;;5.90
73937;BMP180;59249;59.736;30.568;2023-03-23T03:07:30;99180.00;;;5.90
73937;BMP180;59249;59.736;30.568;2023-03-23T03:10:19;99166.00;;;5.90
73937;BMP180;59249;59.736;30.568;2023-03-23T03:13:02;99167.00;;;5.90
73937;BMP180;59249;59.736;30.568;2023-03-23T03:15:38;99158.00;;;5.90
73937;BMP180;59249;59.736;30.568;2023-03-23T03:18:16;99162.00;;;5.90
73937;BMP180;59249;59.736;30.568;2023-03-23T03:20:49;99159.00;;;5.90
73937;BMP180;59249;59.736;30.568;2023-03-23T03:23:25;99156.00;;;5.90
73937;BMP180;59249;59.736;30.568;2023-03-23T03:26:02;99168.00;;;5.90
73937;BMP180;59249;59.736;30.568;2023-03-23T03:28:47;99157.00;;;5.90
73937;BMP180;59249;59.736;30.568;2023-03-23T03:31:21;99151.00;;;5.90
73937;BMP180;59249;59.736;30.568;2023-03-23T03:33:55;99150.00;;;5.90
73937;BMP180;59249;59.736;30.568;2023-03-23T03:36:26;99146.00;;;5.90
73937;BMP180;59249;59.736;30.568;2023-03-23T03:39:06;99140.00;;;6.00
73937;BMP180;59249;59.736;30.568;2023-03-23T03:41:37;99140.00;;;6.00
73937;BMP180;59249;59.736;30.568;2023-03-23T03:44:05;99135.00;;;6.00
73937;BMP180;59249;59.736;30.568;2023-03-23T03:46:35;99124.00;;;5.90
73937;BMP180;59249;59.736;30.568;2023-03-23T03:49:05;99125.00;;;5.90
73937;BMP180;59249;59.736;30.568;2023-03-23T03:51:37;99125.00;;;5.90
73937;BMP180;59249;59.736;30.568;2023-03-23T03:54:10;99119.00;;;6.00
73937;BMP180;59249;59.736;30.568;2023-03-23T03:56:37;99122.00;;;6.00
73937;BMP180;59249;59.736;30.568;2023-03-23T03:59:32;99120.00;;;6.00
73937;BMP180;59249;59.736;30.568;2023-03-23T04:02:20;99120.00;;;5.90
73937;BMP180;59249;59.736;30.568;2023-03-23T04:04:52;99114.00;;;5.90
73937;BMP180;59249;59.736;30.568;2023-03-23T04:07:19;99111.00;;;6.00
73937;BMP180;59249;59.736;30.568;2023-03-23T04:09:50;99103.00;;;6.00
73937;BMP180;59249;59.736;30.568;2023-03-23T04:12:19;99113.00;;;6.00
73937;BMP180;59249;59.736;30.568;2023-03-23T04:15:08;99095.00;;;6.00
73937;BMP180;59249;59.736;30.568;2023-03-23T04:17:38;99091.00;;;6.00
73937;BMP180;59249;59.736;30.568;2023-03-23T04:20:08;99090.00;;;6.00
73937;BMP180;59249;59.736;30.568;2023-03-23T04:22:41;99098.00;;;6.00
73937;BMP180;59249;59.736;30.568;2023-03-23T04:25:12;99090.00;;;6.10
73937;BMP180;59249;59.736;30.568;2023-03-23T04:27:41;99089.00;;;6.00
73937;BMP180;59249;59.736;30.568;2023-03-23T04:30:13;99088.00;;;6.00
73937;BMP180;59249;59.736;30.568;2023-03-23T04:32:49;99082.00;;;6.10
73937;BMP180;59249;59.736;30.568;2023-03-23T04:35:24;99075.00;;;6.10
73937;BMP180;59249;59.736;30.568;2023-03-23T04:38:10;99073.00;;;6.10
73937;BMP180;59249;59.736;30.568;2023-03-23T04:40:44;99062.00;;;6.10
73937;BMP180;59249;59.736;30.568;2023-03-23T04:43:23;99063.00;;;6.20
73937;BMP180;59249;59.736;30.568;2023-03-23T04:45:58;99064.00;;;6.20
73937;BMP180;59249;59.736;30.568;2023-03-23T04:48:31;99060.00;;;6.20
73937;BMP180;59249;59.736;30.568;2023-03-23T04:51:18;99069.00;;;6.20
73937;BMP180;59249;59.736;30.568;2023-03-23T04:53:49;99056.00;;;6.20
73937;BMP180;59249;59.736;30.568;2023-03-23T04:56:18;99058.00;;;6.20
73937;BMP180;59249;59.736;30.568;2023-03-23T04:58:46;99050.00;;;6.30
73937;BMP180;59249;59.736;30.568;2023-03-23T05:01:13;99056.00;;;6.30
73937;BMP180;59249;59.736;30.568;2023-03-23T05:04:13;99061.00;;;6.30
73937;BMP180;59249;59.736;30.568;2023-03-23T05:06:46;99056.00;;;6.40
73937;BMP180;59249;59.736;30.568;2023-03-23T05:09:20;99061.00;;;6.40
73937;BMP180;59249;59.736;30.568;2023-03-23T05:11:51;99062.00;;;6.40
73937;BMP180;59249;59.736;30.568;2023-03-23T05:14:26;99063.00;;;6.40
73937;BMP180;59249;59.736;30.568;2023-03-23T05:17:09;99051.00;;;6.40
73937;BMP180;59249;59.736;30.568;2023-03-23T05:19:39;99064.00;;;6.40
73937;BMP180;59249;59.736;30.568;2023-03-23T05:22:28;99056.00;;;6.50
73937;BMP180;59249;59.736;30.568;2023-03-23T05:25:00;99039.00;;;6.40
73937;BMP180;59249;59.736;30.568;2023-03-23T05:27:33;99056.00;;;6.50
73937;BMP180;59249;59.736;30.568;2023-03-23T05:30:10;99052.00;;;6.50
73937;BMP180;59249;59.736;30.568;2023-03-23T05:32:42;99052.00;;;6.60
73937;BMP180;59249;59.736;30.568;2023-03-23T05:35:25;99053.00;;;6.60
73937;BMP180;59249;59.736;30.568;2023-03-23T05:37:56;99051.00;;;6.60
73937;BMP180;59249;59.736;30.568;2023-03-23T05:40:25;99051.00;;;6.60
73937;BMP180;59249;59.736;30.568;2023-03-23T05:43:00;99039.00;;;6.60
73937;BMP180;59249;59.736;30.568;2023-03-23T05:45:46;99050.00;;;6.60
73937;BMP180;59249;59.736;30.568;2023-03-23T05:48:14;99048.00;;;6.60
73937;BMP180;59249;59.736;30.568;2023-03-23T05:50:42;99057.00;;;6.60
73937;BMP180;59249;59.736;30.568;2023-03-23T05:53:10;99057.00;;;6.70
73937;BMP180;59249;59.736;30.568;2023-03-23T05:55:39;99051.00;;;6.70
73937;BMP180;59249;59.736;30.568;2023-03-23T05:58:19;99064.00;;;6.80
73937;BMP180;59249;59.736;30.568;2023-03-23T06:00:47;99059.00;;;6.80
73937;BMP180;59249;59.736;30.568;2023-03-23T06:03:23;99066.00;;;6.80
73937;BMP180;59249;59.736;30.568;2023-03-23T06:06:17;99068.00;;;6.80
73937;BMP180;59249;59.736;30.568;2023-03-23T06:09:03;99074.00;;;6.80
73937;BMP180;59249;59.736;30.568;2023-03-23T06:11:43;99078.00;;;6.80
73937;BMP180;59249;59.736;30.568;2023-03-23T06:14:31;99083.00;;;6.80
73937;BMP180;59249;59.736;30.568;2023-03-23T06:17:00;99082.00;;;6.80
73937;BMP180;59249;59.736;30.568;2023-03-23T06:19:27;99078.00;;;6.80
73937;BMP180;59249;59.736;30.568;2023-03-23T06:22:05;99090.00;;;6.90
73937;BMP180;59249;59.736;30.568;2023-03-23T06:24:53;99090.00;;;6.80
73937;BMP180;59249;59.736;30.568;2023-03-23T06:27:29;99093.00;;;6.90
73937;BMP180;59249;59.736;30.568;2023-03-23T06:29:58;99102.00;;;6.90
73937;BMP180;59249;59.736;30.568;2023-03-23T06:32:28;99109.00;;;6.90
73937;BMP180;59249;59.736;30.568;2023-03-23T06:34:58;99111.00;;;7.00
73937;BMP180;59249;59.736;30.568;2023-03-23T06:37:47;99111.00;;;7.00
73937;BMP180;59249;59.736;30.568;2023-03-23T06:40:24;99112.00;;;7.00
73937;BMP180;59249;59.736;30.568;2023-03-23T06:42:56;99124.00;;;7.10
73937;BMP180;59249;59.736;30.568;2023-03-23T06:45:44;99111.00;;;7.00
73937;BMP180;59249;59.736;30.568;2023-03-23T06:48:38;99109.00;;;7.00
73937;BMP180;59249;59.736;30.568;2023-03-23T06:51:08;99123.00;;;7.10
73937;BMP180;59249;59.736;30.568;2023-03-23T06:53:38;99124.00;;;7.10
73937;BMP180;59249;59.736;30.568;2023-03-23T06:56:10;99126.00;;;7.20
73937;BMP180;59249;59.736;30.568;2023-03-23T06:58:40;99127.00;;;7.20
73937;BMP180;59249;59.736;30.568;2023-03-23T07:01:09;99138.00;;;7.20
73937;BMP180;59249;59.736;30.568;2023-03-23T07:03:45;99114.00;;;7.20
73937;BMP180;59249;59.736;30.568;2023-03-23T07:06:17;99125.00;;;7.30
73937;BMP180;59249;59.736;30.568;2023-03-23T07:08:50;99126.00;;;7.30
73937;BMP180;59249;59.736;30.568;2023-03-23T07:11:22;99126.00;;;7.40
73937;BMP180;59249;59.736;30.568;2023-03-23T07:13:50;99130.00;;;7.40
73937;BMP180;59249;59.736;30.568;2023-03-23T07:16:19;99114.00;;;7.40
73937;BMP180;59249;59.736;30.568;2023-03-23T07:18:47;99114.00;;;7.50
73937;BMP180;59249;59.736;30.568;2023-03-23T07:21:15;99122.00;;;7.60
73937;BMP180;59249;59.736;30.568;2023-03-23T07:23:44;99127.00;;;7.70
73937;BMP180;59249;59.736;30.568;2023-03-23T07:26:20;99131.00;;;7.80
73937;BMP180;59249;59.736;30.568;2023-03-23T07:28:53;99137.00;;;8.00
73937;BMP180;59249;59.736;30.568;2023-03-23T07:31:39;99137.00;;;8.00
73937;BMP180;59249;59.736;30.568;2023-03-23T07:34:06;99138.00;;;8.00
73937;BMP180;59249;59.736;30.568;2023-03-23T07:36:48;99151.00;;;8.00
73937;BMP180;59249;59.736;30.568;2023-03-23T07:39:17;99162.00;;;8.10
73937;BMP180;59249;59.736;30.568;2023-03-23T07:41:46;99154.00;;;8.10
73937;BMP180;59249;59.736;30.568;2023-03-23T07:44:19;99150.00;;;8.20
73937;BMP180;59249;59.736;30.568;2023-03-23T07:46:51;99159.00;;;8.30
73937;BMP180;59249;59.736;30.568;2023-03-23T07:49:28;99149.00;;;8.30
73937;BMP180;59249;59.736;30.568;2023-03-23T07:52:05;99167.00;;;8.40
73937;BMP180;59249;59.736;30.568;2023-03-23T07:54:33;99163.00;;;8.30
73937;BMP180;59249;59.736;30.568;2023-03-23T07:57:14;99161.00;;;8.30
73937;BMP180;59249;59.736;30.568;2023-03-23T07:59:48;99159.00;;;8.30
73937;BMP180;59249;59.736;30.568;2023-03-23T08:02:19;99162.00;;;8.40
73937;BMP180;59249;59.736;30.568;2023-03-23T08:05:16;99163.00;;;8.50
73937;BMP180;59249;59.736;30.568;2023-03-23T08:08:11;99156.00;;;8.50
73937;BMP180;59249;59.736;30.568;2023-03-23T08:11:15;99162.00;;;8.50
73937;BMP180;59249;59.736;30.568;2023-03-23T08:13:43;99150.00;;;8.60
73937;BMP180;59249;59.736;30.568;2023-03-23T08:16:18;99140.00;;;8.70
73937;BMP180;59249;59.736;30.568;2023-03-23T08:19:17;99150.00;;;8.80
73937;BMP180;59249;59.736;30.568;2023-03-23T08:22:02;99150.00;;;8.80
73937;BMP180;59249;59.736;30.568;2023-03-23T08:25:19;99153.00;;;8.80
73937;BMP180;59249;59.736;30.568;2023-03-23T08:28:20;99162.00;;;8.90
73937;BMP180;59249;59.736;30.568;2023-03-23T08:31:29;99170.00;;;9.10
73937;BMP180;59249;59.736;30.568;2023-03-23T08:34:25;99157.00;;;9.10
73937;BMP180;59249;59.736;30.568;2023-03-23T08:37:07;99144.00;;;9.20
73937;BMP180;59249;59.736;30.568;2023-03-23T08:39:41;99150.00;;;9.30
73937;BMP180;59249;59.736;30.568;2023-03-23T08:42:29;99144.00;;;9.40
73937;BMP180;59249;59.736;30.568;2023-03-23T08:45:01;99147.00;;;9.40
73937;BMP180;59249;59.736;30.568;2023-03-23T08:47:30;99152.00;;;9.50
73937;BMP180;59249;59.736;30.568;2023-03-23T08:50:25;99153.00;;;9.60
73937;BMP180;59249;59.736;30.568;2023-03-23T08:53:20;99150.00;;;9.70
73937;BMP180;59249;59.736;30.568;2023-03-23T08:56:15;99145.00;;;9.80
73937;BMP180;59249;59.736;30.568;2023-03-23T08:59:03;99158.00;;;9.90
73937;BMP180;59249;59.736;30.568;2023-03-23T09:01:54;99153.00;;;9.80
73937;BMP180;59249;59.736;30.568;2023-03-23T09:04:43;99147.00;;;9.90
73937;BMP180;59249;59.736;30.568;2023-03-23T09:07:33;99160.00;;;10.00
73937;BMP180;59249;59.736;30.568;2023-03-23T09:10:06;99154.00;;;10.10
73937;BMP180;59249;59.736;30.568;2023-03-23T09:12:52;99172.00;;;10.20
73937;BMP180;59249;59.736;30.568;2023-03-23T09:15:43;99177.00;;;10.30
73937;BMP180;59249;59.736;30.568;2023-03-23T09:18:15;99161.00;;;10.20
73937;BMP180;59249;59.736;30.568;2023-03-23T09:20:49;99169.00;;;10.20
73937;BMP180;59249;59.736;30.568;2023-03-23T09:23:22;99182.00;;;10.10
73937;BMP180;59249;59.736;30.568;2023-03-23T09:25:50;99186.00;;;10.10
73937;BMP180;59249;59.736;30.568;2023-03-23T09:28:20;99175.00;;;10.30
73937;BMP180;59249;59.736;30.568;2023-03-23T09:30:48;99181.00;;;10.30
73937;BMP180;59249;59.736;30.568;2023-03-23T09:33:17;99171.00;;;10.40
73937;BMP180;59249;59.736;30.568;2023-03-23T09:35:45;99179.00;;;10.40
73937;BMP180;59249;59.736;30.568;2023-03-23T09:38:13;99176.00;;;10.40
73937;BMP180;59249;59.736;30.568;2023-03-23T09:40:47;99175.00;;;10.40
73937;BMP180;59249;59.736;30.568;2023-03-23T09:43:40;99179.00;;;10.40
73937;BMP180;59249;59.736;30.568;2023-03-23T09:46:45;99170.00;;;10.40
73937;BMP180;59249;59.736;30.568;2023-03-23T09:49:24;99166.00;;;10.50
73937;BMP180;59249;59.736;30.568;2023-03-23T09:52:08;99155.00;;;10.60
73937;BMP180;59249;59.736;30.568;2023-03-23T09:54:39;99167.00;;;10.70
73937;BMP180;59249;59.736;30.568;2023-03-23T09:57:16;99137.00;;;10.60
73937;BMP180;59249;59.736;30.568;2023-03-23T09:59:56;99149.00;;;10.80
73937;BMP180;59249;59.736;30.568;2023-03-23T10:02:44;99154.00;;;10.70
73937;BMP180;59249;59.736;30.568;2023-03-23T10:05:28;99149.00;;;10.70
73937;BMP180;59249;59.736;30.568;2023-03-23T10:07:59;99147.00;;;10.70
73937;BMP180;59249;59.736;30.568;2023-03-23T10:10:35;99142.00;;;10.70
73937;BMP180;59249;59.736;30.568;2023-03-23T10:13:17;99139.00;;;10.70
73937;BMP180;59249;59.736;30.568;2023-03-23T10:15:56;99137.00;;;10.50
73937;BMP180;59249;59.736;30.568;2023-03-23T10:18:29;99134.00;;;10.60
73937;BMP180;59249;59.736;30.568;2023-03-23T10:21:04;99127.00;;;10.60
73937;BMP180;59249;59.736;30.568;2023-03-23T10:23:49;99148.00;;;10.50
73937;BMP180;59249;59.736;30.568;2023-03-23T10:26:29;99109.00;;;10.50
73937;BMP180;59249;59.736;30.568;2023-03-23T10:29:24;99118.00;;;10.50
73937;BMP180;59249;59.736;30.568;2023-03-23T10:31:58;99128.00;;;10.50
73937;BMP180;59249;59.736;30.568;2023-03-23T10:34:35;99120.00;;;10.40
73937;BMP180;59249;59.736;30.568;2023-03-23T10:37:54;99122.00;;;10.50
73937;BMP180;59249;59.736;30.568;2023-03-23T10:40:29;99122.00;;;10.50
73937;BMP180;59249;59.736;30.568;2023-03-23T10:42:58;99114.00;;;10.50
73937;BMP180;59249;59.736;30.568;2023-03-23T10:45:31;99132.00;;;10.50
73937;BMP180;59249;59.736;30.568;2023-03-23T10:48:08;99138.00;;;10.60
73937;BMP180;59249;59.736;30.568;2023-03-23T10:50:39;99141.00;;;10.70
73937;BMP180;59249;59.736;30.568;2023-03-23T10:53:15;99143.00;;;10.60
73937;BMP180;59249;59.736;30.568;2023-03-23T10:55:45;99145.00;;;10.60
73937;BMP180;59249;59.736;30.568;2023-03-23T10:58:23;99141.00;;;10.80
73937;BMP180;59249;59.736;30.568;2023-03-23T11:00:59;99157.00;;;10.80
73937;BMP180;59249;59.736;30.568;2023-03-23T11:03:43;99154.00;;;10.90
73937;BMP180;59249;59.736;30.568;2023-03-23T11:06:21;99154.00;;;11.00
73937;BMP180;59249;59.736;30.568;2023-03-23T11:09:09;99155.00;;;11.00
73937;BMP180;59249;59.736;30.568;2023-03-23T11:11:41;99161.00;;;11.10
73937;BMP180;59249;59.736;30.568;2023-03-23T11:14:16;99154.00;;;11.10
73937;BMP180;59249;59.736;30.568;2023-03-23T11:16:52;99164.00;;;11.20
73937;BMP180;59249;59.736;30.568;2023-03-23T11:19:24;99161.00;;;11.20
73937;BMP180;59249;59.736;30.568;2023-03-23T11:21:56;99135.00;;;11.20
73937;BMP180;59249;59.736;30.568;2023-03-23T11:24:33;99150.00;;;11.20
73937;BMP180;59249;59.736;30.568;2023-03-23T11:27:05;99152.00;;;11.20
73937;BMP180;59249;59.736;30.568;2023-03-23T11:29:49;99096.00;;;11.00
73937;BMP180;59249;59.736;30.568;2023-03-23T11:32:24;99116.00;;;11.10
73937;BMP180;59249;59.736;30.568;2023-03-23T11:34:59;99147.00;;;11.00
73937;BMP180;59249;59.736;30.568;2023-03-23T11:37:34;99145.00;;;11.10
73937;BMP180;59249;59.736;30.568;2023-03-23T11:40:17;99136.00;;;11.10
73937;BMP180;59249;59.736;30.568;2023-03-23T11:42:57;99123.00;;;11.10
73937;BMP180;59249;59.736;30.568;2023-03-23T11:45:34;99162.00;;;11.10
73937;BMP180;59249;59.736;30.568;2023-03-23T11:48:29;99153.00;;;11.00
73937;BMP180;59249;59.736;30.568;2023-03-23T11:51:10;99147.00;;;11.00
73937;BMP180;59249;59.736;30.568;2023-03-23T11:53:47;99136.00;;;11.10
73937;BMP180;59249;59.736;30.568;2023-03-23T11:56:24;99151.00;;;11.20
73937;BMP180;59249;59.736;30.568;2023-03-23T11:58:55;99139.00;;;11.10
73937;BMP180;59249;59.736;30.568;2023-03-23T12:04:43;99161.00;;;11.30
73937;BMP180;59249;59.736;30.568;2023-03-23T12:07:47;99139.00;;;11.30
73937;BMP180;59249;59.736;30.568;2023-03-23T12:10:27;99147.00;;;11.40
73937;BMP180;59249;59.736;30.568;2023-03-23T12:13:11;99147.00;;;11.40
73937;BMP180;59249;59.736;30.568;2023-03-23T12:15:53;99106.00;;;11.40
73937;BMP180;59249;59.736;30.568;2023-03-23T12:18:43;99148.00;;;11.30
73937;BMP180;59249;59.736;30.568;2023-03-23T12:21:22;99144.00;;;11.10
73937;BMP180;59249;59.736;30.568;2023-03-23T12:24:06;99138.00;;;11.10
73937;BMP180;59249;59.736;30.568;2023-03-23T12:26:47;99141.00;;;11.10
73937;BMP180;59249;59.736;30.568;2023-03-23T12:29:28;99128.00;;;11.10
73937;BMP180;59249;59.736;30.568;2023-03-23T12:32:46;99123.00;;;11.00
73937;BMP180;59249;59.736;30.568;2023-03-23T12:35:31;99112.00;;;10.90
73937;BMP180;59249;59.736;30.568;2023-03-23T12:38:19;99133.00;;;11.00
73937;BMP180;59249;59.736;30.568;2023-03-23T12:41:16;99132.00;;;11.00
73937;BMP180;59249;59.736;30.568;2023-03-23T12:43:50;99138.00;;;10.90
73937;BMP180;59249;59.736;30.568;2023-03-23T12:46:35;99118.00;;;11.00
73937;BMP180;59249;59.736;30.568;2023-03-23T12:49:15;99132.00;;;11.10
73937;BMP180;59249;59.736;30.568;2023-03-23T12:51:51;99136.00;;;11.20
73937;BMP180;59249;59.736;30.568;2023-03-23T12:54:29;99135.00;;;11.20
73937;BMP180;59249;59.736;30.568;2023-03-23T12:57:07;99138.00;;;11.20
73937;BMP180;59249;59.736;30.568;2023-03-23T12:59:44;99140.00;;;11.20
73937;BMP180;59249;59.736;30.568;2023-03-23T13:02:20;99135.00;;;11.20
73937;BMP180;59249;59.736;30.568;2023-03-23T13:04:57;99125.00;;;11.30
73937;BMP180;59249;59.736;30.568;2023-03-23T13:07:32;99146.00;;;11.10
73937;BMP180;59249;59.736;30.568;2023-03-23T13:10:12;99135.00;;;11.20
73937;BMP180;59249;59.736;30.568;2023-03-23T13:12:47;99146.00;;;11.20
73937;BMP180;59249;59.736;30.568;2023-03-23T13:15:26;99140.00;;;11.30
73937;BMP180;59249;59.736;30.568;2023-03-23T13:18:07;99147.00;;;11.30
73937;BMP180;59249;59.736;30.568;2023-03-23T13:20:52;99154.00;;;11.30
73937;BMP180;59249;59.736;30.568;2023-03-23T13:23:25;99158.00;;;11.30
73937;BMP180;59249;59.736;30.568;2023-03-23T13:26:02;99153.00;;;11.20
73937;BMP180;59249;59.736;30.568;2023-03-23T13:28:44;99167.00;;;11.10
73937;BMP180;59249;59.736;30.568;2023-03-23T13:31:17;99157.00;;;11.10
73937;BMP180;59249;59.736;30.568;2023-03-23T13:33:53;99139.00;;;11.10
73937;BMP180;59249;59.736;30.568;2023-03-23T13:36:30;99159.00;;;11.10
73937;BMP180;59249;59.736;30.568;2023-03-23T13:39:02;99163.00;;;11.00
73937;BMP180;59249;59.736;30.568;2023-03-23T13:41:44;99163.00;;;11.10
73937;BMP180;59249;59.736;30.568;2023-03-23T13:44:23;99159.00;;;10.90
73937;BMP180;59249;59.736;30.568;2023-03-23T13:47:04;99159.00;;;11.00
73937;BMP180;59249;59.736;30.568;2023-03-23T13:49:45;99151.00;;;10.90
73937;BMP180;59249;59.736;30.568;2023-03-23T13:52:18;99168.00;;;10.80
73937;BMP180;59249;59.736;30.568;2023-03-23T13:54:51;99159.00;;;10.80
73937;BMP180;59249;59.736;30.568;2023-03-23T13:57:48;99169.00;;;10.80
73937;BMP180;59249;59.736;30.568;2023-03-23T14:00:36;99162.00;;;10.80
73937;BMP180;59249;59.736;30.568;2023-03-23T14:03:16;99163.00;;;10.70
73937;BMP180;59249;59.736;30.568;2023-03-23T14:05:49;99169.00;;;10.60
73937;BMP180;59249;59.736;30.568;2023-03-23T14:08:24;99172.00;;;10.60
73937;BMP180;59249;59.736;30.568;2023-03-23T14:11:12;99177.00;;;10.60
73937;BMP180;59249;59.736;30.568;2023-03-23T14:13:59;99162.00;;;10.60
73937;BMP180;59249;59.736;30.568;2023-03-23T14:16:37;99164.00;;;10.70
73937;BMP180;59249;59.736;30.568;2023-03-23T14:19:17;99168.00;;;10.60
73937;BMP180;59249;59.736;30.568;2023-03-23T14:21:53;99146.00;;;10.60
73937;BMP180;59249;59.736;30.568;2023-03-23T14:24:24;99161.00;;;10.60
73937;BMP180;59249;59.736;30.568;2023-03-23T14:27:02;99167.00;;;10.40
73937;BMP180;59249;59.736;30.568;2023-03-23T14:29:38;99169.00;;;10.50
73937;BMP180;59249;59.736;30.568;2023-03-23T14:32:07;99166.00;;;10.40
73937;BMP180;59249;59.736;30.568;2023-03-23T14:34:40;99165.00;;;10.40
73937;BMP180;59249;59.736;30.568;2023-03-23T14:37:12;99159.00;;;10.30
73937;BMP180;59249;59.736;30.568;2023-03-23T14:39:45;99164.00;;;10.30
73937;BMP180;59249;59.736;30.568;2023-03-23T14:42:16;99179.00;;;10.20
73937;BMP180;59249;59.736;30.568;2023-03-23T14:44:56;99173.00;;;10.20
73937;BMP180;59249;59.736;30.568;2023-03-23T14:47:27;99170.00;;;10.10
73937;BMP180;59249;59.736;30.568;2023-03-23T14:50:00;99169.00;;;10.20
73937;BMP180;59249;59.736;30.568;2023-03-23T14:52:33;99156.00;;;10.10
73937;BMP180;59249;59.736;30.568;2023-03-23T14:55:12;99162.00;;;10.10
73937;BMP180;59249;59.736;30.568;2023-03-23T14:57:43;99158.00;;;10.00
73937;BMP180;59249;59.736;30.568;2023-03-23T15:00:15;99152.00;;;9.90
73937;BMP180;59249;59.736;30.568;2023-03-23T15:02:49;99154.00;;;9.90
73937;BMP180;59249;59.736;30.568;2023-03-23T15:05:21;99164.00;;;9.90
73937;BMP180;59249;59.736;30.568;2023-03-23T15:07:59;99163.00;;;9.80
73937;BMP180;59249;59.736;30.568;2023-03-23T15:10:30;99165.00;;;9.80